Time,TemperatureF,DewpointF,PressureIn,WindDirection,WindDirectionDegrees,WindSpeedMPH,WindSpeedGustMPH,Humidity,HourlyPrecipIn,Conditions,Clouds,dailyrainin,SoftwareType,DateUTC
2013-06-03 00:12:00,58.4,53.0,29.66,SSW,205,13.0,17.0,81,0.00,,,0.00,weatherlink.com 1.10,2013-06-03 07:12:00,
2013-06-03 00:27:00,58.7,52.0,29.66,South,180,9.0,16.0,79,0.00,,,0.00,weatherlink.com 1.10,2013-06-03 07:27:00,
2013-06-03 00:42:00,58.8,52.0,29.66,SSW,198,13.0,17.0,77,0.00,,,0.00,weatherlink.com 1.10,2013-06-03 07:42:00,
2013-06-03 00:57:00,58.8,51.0,29.65,SW,228,14.0,16.0,75,0.00,,,0.00,weatherlink.com 1.10,2013-06-03 07:57:00,
2013-06-03 01:12:00,59.0,50.0,29.65,WSW,246,4.0,16.0,72,0.00,,,0.00,weatherlink.com 1.10,2013-06-03 08:12:00,
2013-06-03 01:27:00,58.6,50.0,29.64,South,185,10.0,15.0,73,0.00,,,0.00,weatherlink.com 1.10,2013-06-03 08:27:00,
2013-06-03 01:42:00,59.3,48.0,29.64,SSW,205,10.0,19.0,66,0.00,,,0.00,weatherlink.com 1.10,2013-06-03 08:42:00,
2013-06-03 01:57:00,59.3,46.0,29.64,SSW,203,14.0,19.0,61,0.00,,,0.00,weatherlink.com 1.10,2013-06-03 08:57:00,
2013-06-03 02:12:00,59.0,47.0,29.64,SSW,197,18.0,18.0,64,0.00,,,0.00,weatherlink.com 1.10,2013-06-03 09:12:00,
2013-06-03 02:27:00,58.9,47.0,29.64,SSE,165,8.0,15.0,66,0.00,,,0.00,weatherlink.com 1.10,2013-06-03 09:27:00,
2013-06-03 02:42:00,59.1,46.0,29.64,SSE,163,11.0,20.0,62,0.00,,,0.00,weatherlink.com 1.10,2013-06-03 09:42:00,
2013-06-03 02:57:00,60.1,43.0,29.63,SW,214,8.0,23.0,53,0.00,,,0.00,weatherlink.com 1.10,2013-06-03 09:57:00,
2013-06-03 03:13:00,60.0,42.0,29.63,South,176,12.0,21.0,52,0.00,,,0.00,weatherlink.com 1.10,2013-06-03 10:13:00,
2013-06-03 03:28:00,58.7,44.0,29.64,West,274,3.0,16.0,58,0.00,,,0.00,weatherlink.com 1.10,2013-06-03 10:28:00,
2013-06-03 03:43:00,58.3,43.0,29.64,WNW,292,6.0,12.0,58,0.00,,,0.00,weatherlink.com 1.10,2013-06-03 10:43:00,
2013-06-03 03:58:00,57.9,42.0,29.65,ENE,68,1.0,11.0,55,0.00,,,0.00,weatherlink.com 1.10,2013-06-03 10:58:00,
2013-06-03 04:13:00,57.2,41.0,29.65,SSE,150,3.0,17.0,55,0.00,,,0.00,weatherlink.com 1.10,2013-06-03 11:13:00,
2013-06-03 04:28:00,56.9,43.0,29.65,WSW,239,12.0,14.0,60,0.00,,,0.00,weatherlink.com 1.10,2013-06-03 11:28:00,
2013-06-03 04:43:00,56.4,42.0,29.66,South,177,5.0,13.0,60,0.00,,,0.00,weatherlink.com 1.10,2013-06-03 11:43:00,
2013-06-03 04:58:00,55.8,42.0,29.66,SSE,155,6.0,11.0,61,0.00,,,0.00,weatherlink.com 1.10,2013-06-03 11:58:00,
2013-06-03 05:13:00,55.7,42.0,29.66,SSE,166,4.0,11.0,60,0.00,,,0.00,weatherlink.com 1.10,2013-06-03 12:13:00,
2013-06-03 05:28:00,54.0,43.0,29.66,SW,215,6.0,12.0,66,0.00,,,0.00,weatherlink.com 1.10,2013-06-03 12:28:00,
2013-06-03 05:43:00,51.5,45.0,29.67,SSW,203,8.0,13.0,77,0.00,,,0.00,weatherlink.com 1.10,2013-06-03 12:43:00,
2013-06-03 05:58:00,50.1,45.0,29.67,SSW,203,6.0,13.0,83,0.00,,,0.00,weatherlink.com 1.10,2013-06-03 12:58:00,
2013-06-03 06:13:00,49.3,46.0,29.67,SSW,210,7.0,15.0,87,0.00,,,0.00,weatherlink.com 1.10,2013-06-03 13:13:00,
2013-06-03 06:28:00,49.1,46.0,29.68,SSE,160,10.0,16.0,90,0.00,,,0.00,weatherlink.com 1.10,2013-06-03 13:28:00,
2013-06-03 06:43:00,49.3,47.0,29.68,SSW,205,10.0,15.0,90,0.00,,,0.00,weatherlink.com 1.10,2013-06-03 13:43:00,
2013-06-03 06:58:00,50.0,47.0,29.68,SSW,207,7.0,15.0,89,0.00,,,0.00,weatherlink.com 1.10,2013-06-03 13:58:00,
2013-06-03 07:13:00,51.2,47.0,29.69,South,173,6.0,12.0,84,0.00,,,0.00,weatherlink.com 1.10,2013-06-03 14:13:00,
2013-06-03 07:28:00,53.2,46.0,29.70,South,188,4.0,11.0,77,0.00,,,0.00,weatherlink.com 1.10,2013-06-03 14:28:00,
2013-06-03 07:43:00,56.7,47.0,29.69,South,181,12.0,15.0,70,0.00,,,0.00,weatherlink.com 1.10,2013-06-03 14:43:00,
2013-06-03 07:58:00,58.8,47.0,29.70,South,179,12.0,18.0,64,0.00,,,0.00,weatherlink.com 1.10,2013-06-03 14:58:00,
2013-06-03 08:13:00,60.5,45.0,29.70,West,267,4.0,15.0,56,0.00,,,0.00,weatherlink.com 1.10,2013-06-03 15:13:00,
2013-06-03 08:28:00,63.9,43.0,29.70,South,180,10.0,20.0,47,0.00,,,0.00,weatherlink.com 1.10,2013-06-03 15:28:00,
2013-06-03 08:43:00,64.6,43.0,29.70,SSE,160,12.0,20.0,45,0.00,,,0.00,weatherlink.com 1.10,2013-06-03 15:43:00,
2013-06-03 08:58:00,63.8,47.0,29.70,SSW,192,12.0,23.0,54,0.00,,,0.00,weatherlink.com 1.10,2013-06-03 15:58:00,
2013-06-03 09:13:00,63.0,47.0,29.70,SSW,210,16.0,22.0,57,0.00,,,0.00,weatherlink.com 1.10,2013-06-03 16:13:00,
2013-06-03 09:28:00,63.8,47.0,29.70,South,188,11.0,24.0,55,0.00,,,0.00,weatherlink.com 1.10,2013-06-03 16:28:00,
2013-06-03 09:43:00,65.3,47.0,29.71,SSW,200,8.0,21.0,52,0.00,,,0.00,weatherlink.com 1.10,2013-06-03 16:43:00,
2013-06-03 09:59:00,67.4,43.0,29.71,SSW,203,17.0,23.0,41,0.00,,,0.00,weatherlink.com 1.10,2013-06-03 16:59:00,
2013-06-03 10:14:00,68.4,40.0,29.71,WSW,241,7.0,25.0,36,0.00,,,0.00,weatherlink.com 1.10,2013-06-03 17:14:00,
2013-06-03 10:29:00,69.8,43.0,29.72,South,174,9.0,24.0,38,0.00,,,0.00,weatherlink.com 1.10,2013-06-03 17:29:00,
2013-06-03 10:44:00,70.7,41.0,29.72,WSW,239,18.0,23.0,34,0.00,,,0.00,weatherlink.com 1.10,2013-06-03 17:44:00,
2013-06-03 10:59:00,71.5,41.0,29.72,South,169,11.0,24.0,33,0.00,,,0.00,weatherlink.com 1.10,2013-06-03 17:59:00,
2013-06-03 11:14:00,72.4,42.0,29.72,South,177,5.0,22.0,33,0.00,,,0.00,weatherlink.com 1.10,2013-06-03 18:14:00,
2013-06-03 11:29:00,73.0,42.0,29.72,South,188,6.0,21.0,33,0.00,,,0.00,weatherlink.com 1.10,2013-06-03 18:29:00,
2013-06-03 11:44:00,73.3,41.0,29.72,South,190,10.0,22.0,31,0.00,,,0.00,weatherlink.com 1.10,2013-06-03 18:44:00,
2013-06-03 11:59:00,73.9,43.0,29.72,SSE,148,12.0,21.0,33,0.00,,,0.00,weatherlink.com 1.10,2013-06-03 18:59:00,
2013-06-03 12:14:00,74.5,44.0,29.72,South,191,8.0,27.0,34,0.00,,,0.00,weatherlink.com 1.10,2013-06-03 19:14:00,
2013-06-03 12:29:00,74.7,44.0,29.73,SW,217,13.0,20.0,34,0.00,,,0.00,weatherlink.com 1.10,2013-06-03 19:29:00,
2013-06-03 12:44:00,75.3,44.0,29.73,SSE,159,11.0,23.0,33,0.00,,,0.00,weatherlink.com 1.10,2013-06-03 19:44:00,
2013-06-03 12:59:00,76.2,44.0,29.73,SSW,203,9.0,20.0,32,0.00,,,0.00,weatherlink.com 1.10,2013-06-03 19:59:00,
2013-06-03 13:14:00,76.6,45.0,29.73,SSW,212,9.0,22.0,33,0.00,,,0.00,weatherlink.com 1.10,2013-06-03 20:14:00,
2013-06-03 13:29:00,77.1,46.0,29.73,West,279,6.0,21.0,33,0.00,,,0.00,weatherlink.com 1.10,2013-06-03 20:29:00,
2013-06-03 13:44:00,77.6,45.0,29.72,SSE,166,4.0,18.0,31,0.00,,,0.00,weatherlink.com 1.10,2013-06-03 20:44:00,
2013-06-03 13:59:00,78.1,44.0,29.72,SSW,194,14.0,21.0,30,0.00,,,0.00,weatherlink.com 1.10,2013-06-03 20:59:00,
2013-06-03 14:14:00,78.0,46.0,29.72,South,184,9.0,21.0,32,0.00,,,0.00,weatherlink.com 1.10,2013-06-03 21:14:00,
2013-06-03 14:29:00,77.9,46.0,29.72,WNW,290,5.0,28.0,32,0.00,,,0.00,weatherlink.com 1.10,2013-06-03 21:29:00,
2013-06-03 14:44:00,78.2,45.0,29.72,South,183,11.0,18.0,31,0.00,,,0.00,weatherlink.com 1.10,2013-06-03 21:44:00,
2013-06-03 14:59:00,78.2,46.0,29.72,WSW,242,24.0,24.0,32,0.00,,,0.00,weatherlink.com 1.10,2013-06-03 21:59:00,
2013-06-03 15:14:00,78.6,47.0,29.72,WSW,239,10.0,22.0,33,0.00,,,0.00,weatherlink.com 1.10,2013-06-03 22:14:00,
2013-06-03 15:29:00,78.4,48.0,29.72,SSW,195,18.0,20.0,34,0.00,,,0.00,weatherlink.com 1.10,2013-06-03 22:29:00,
2013-06-03 15:44:00,78.2,47.0,29.72,SSE,160,15.0,21.0,33,0.00,,,0.00,weatherlink.com 1.10,2013-06-03 22:44:00,
2013-06-03 15:59:00,77.6,48.0,29.72,SW,214,15.0,22.0,35,0.00,,,0.00,weatherlink.com 1.10,2013-06-03 22:59:00,
2013-06-03 16:14:00,77.8,47.0,29.72,WSW,244,17.0,21.0,34,0.00,,,0.00,weatherlink.com 1.10,2013-06-03 23:14:00,
2013-06-03 16:29:00,77.4,46.0,29.72,WSW,249,5.0,21.0,33,0.00,,,0.00,weatherlink.com 1.10,2013-06-03 23:29:00,
2013-06-03 16:44:00,77.0,47.0,29.73,West,264,4.0,21.0,34,0.00,,,0.00,weatherlink.com 1.10,2013-06-03 23:44:00,
2013-06-03 16:59:00,76.9,46.0,29.72,South,181,12.0,18.0,34,0.00,,,0.00,weatherlink.com 1.10,2013-06-03 23:59:00,
2013-06-03 17:14:00,77.1,46.0,29.72,North,360,8.0,17.0,33,0.00,,,0.00,weatherlink.com 1.10,2013-06-04 00:14:00,
2013-06-03 17:29:00,76.2,46.0,29.72,SW,220,10.0,20.0,34,0.00,,,0.00,weatherlink.com 1.10,2013-06-04 00:29:00,
2013-06-03 17:45:00,75.7,45.0,29.72,WNW,297,3.0,23.0,34,0.00,,,0.00,weatherlink.com 1.10,2013-06-04 00:45:00,
2013-06-03 18:00:00,75.1,44.0,29.72,SW,228,4.0,18.0,33,0.00,,,0.00,weatherlink.com 1.10,2013-06-04 01:00:00,
2013-06-03 18:15:00,74.3,44.0,29.72,SSW,195,5.0,22.0,34,0.00,,,0.00,weatherlink.com 1.10,2013-06-04 01:15:00,
2013-06-03 18:30:00,73.1,45.0,29.73,SE,131,6.0,18.0,37,0.00,,,0.00,weatherlink.com 1.10,2013-06-04 01:30:00,
2013-06-03 18:45:00,72.1,48.0,29.73,SW,215,8.0,18.0,42,0.00,,,0.00,weatherlink.com 1.10,2013-06-04 01:45:00,
2013-06-03 19:00:00,71.1,49.0,29.73,SSW,204,11.0,22.0,45,0.00,,,0.00,weatherlink.com 1.10,2013-06-04 02:00:00,
2013-06-03 19:15:00,70.2,48.0,29.74,SSE,166,12.0,17.0,46,0.00,,,0.00,weatherlink.com 1.10,2013-06-04 02:15:00,
2013-06-03 19:30:00,69.4,48.0,29.74,SSW,203,10.0,18.0,46,0.00,,,0.00,weatherlink.com 1.10,2013-06-04 02:30:00,
2013-06-03 19:45:00,68.4,48.0,29.75,SSW,204,7.0,24.0,48,0.00,,,0.00,weatherlink.com 1.10,2013-06-04 02:45:00,
2013-06-03 20:00:00,67.3,48.0,29.75,South,169,3.0,16.0,50,0.00,,,0.00,weatherlink.com 1.10,2013-06-04 03:00:00,
2013-06-03 20:15:00,66.0,49.0,29.76,SW,229,3.0,15.0,55,0.00,,,0.00,weatherlink.com 1.10,2013-06-04 03:15:00,
2013-06-03 20:30:00,65.0,50.0,29.76,SSW,197,9.0,15.0,59,0.00,,,0.00,weatherlink.com 1.10,2013-06-04 03:30:00,
2013-06-03 20:45:00,64.0,51.0,29.76,South,187,10.0,16.0,62,0.00,,,0.00,weatherlink.com 1.10,2013-06-04 03:45:00,
2013-06-03 21:00:00,63.1,51.0,29.77,SSW,195,10.0,15.0,65,0.00,,,0.00,weatherlink.com 1.10,2013-06-04 04:00:00,
2013-06-03 21:15:00,62.3,51.0,29.77,South,174,7.0,12.0,67,0.00,,,0.00,weatherlink.com 1.10,2013-06-04 04:15:00,
2013-06-03 21:30:00,62.0,50.0,29.77,South,184,9.0,12.0,66,0.00,,,0.00,weatherlink.com 1.10,2013-06-04 04:30:00,
2013-06-03 21:45:00,61.5,50.0,29.78,SSE,163,7.0,14.0,67,0.00,,,0.00,weatherlink.com 1.10,2013-06-04 04:45:00,
2013-06-03 22:00:00,61.0,50.0,29.79,SW,219,3.0,9.0,68,0.00,,,0.00,weatherlink.com 1.10,2013-06-04 05:00:00,
2013-06-03 22:15:00,60.9,50.0,29.78,SSW,193,7.0,11.0,68,0.00,,,0.00,weatherlink.com 1.10,2013-06-04 05:15:00,
2013-06-03 22:30:00,59.9,50.0,29.78,South,187,7.0,9.0,71,0.00,,,0.00,weatherlink.com 1.10,2013-06-04 05:30:00,
2013-06-03 22:45:00,59.1,50.0,29.79,SSW,211,6.0,8.0,72,0.00,,,0.00,weatherlink.com 1.10,2013-06-04 05:45:00,
2013-06-03 23:00:00,58.6,50.0,29.79,SSW,200,5.0,9.0,73,0.00,,,0.00,weatherlink.com 1.10,2013-06-04 06:00:00,
2013-06-03 23:15:00,57.6,50.0,29.79,South,177,5.0,8.0,76,0.00,,,0.00,weatherlink.com 1.10,2013-06-04 06:15:00,
2013-06-03 23:30:00,57.2,50.0,29.79,South,184,4.0,7.0,77,0.00,,,0.00,weatherlink.com 1.10,2013-06-04 06:30:00,
2013-06-03 23:45:00,56.1,50.0,29.79,SSW,195,4.0,6.0,79,0.00,,,0.00,weatherlink.com 1.10,2013-06-04 06:45:00,